Aviation Digital Data Service (ADDS)

Output produced by METARs form (1212 UTC 15 November 2018)
found at http://www.aviationweather.gov/metar/data/
 
FDMS 151200Z VRB02KT CAVOK 30/15 Q1016 NOSIG
TAF FDMS 151000Z 1512/1518 09005KT CAVOK